Taconey, Louisiana
Current Conditions -  °F | °C
As of 1:15 PM on Friday 24 Oct 2014 (Local Time) from KHEZ Reporting Station
Clear Clear  
Wind Chill: 68°   Ceiling: Unl
Heat Index: 68°   Visibility: 10mi
Dew Point: 43°   Wind: 7mph
Humidity: 40%   Direction: 320°NW
Pressure: 30.13"   Gusts: NA
Location:  31.5712°N, 91.5148°W
Report Text: KHEZ 241815Z AUTO 32006KT 10SM CLR 20/06 A3013 RMK AO1
Loading
Personal Weather Stations






























Interactive Weather Map
Tropical Storm Tracking
New forecast layout! Learn more

10-Day Weather Forecast

Advertisements
Track Severe Weather on mobile